createdAt,value
2019-04-30T00:01:59.295Z,99.90
2019-04-30T00:04:37.124Z,99.90
2019-04-30T00:13:29.119Z,99.90
2019-04-30T00:16:01.709Z,99.90
2019-04-30T00:18:37.943Z,99.90
2019-04-30T00:21:05.467Z,99.90
2019-04-30T00:23:35.965Z,99.90
2019-04-30T00:26:10.403Z,99.90
2019-04-30T00:28:39.417Z,99.90
2019-04-30T00:31:10.116Z,99.90
2019-04-30T00:33:47.939Z,99.90
2019-04-30T00:36:18.784Z,99.90
2019-04-30T00:38:48.365Z,99.90
2019-04-30T00:41:25.644Z,99.90
2019-04-30T00:43:55.170Z,99.90
2019-04-30T00:46:24.910Z,99.90
2019-04-30T00:48:56.785Z,99.90
2019-04-30T00:51:26.168Z,99.90
2019-04-30T00:53:56.440Z,99.90
2019-04-30T00:58:50.197Z,99.90
2019-04-30T01:01:43.372Z,99.90
2019-04-30T01:04:24.574Z,99.90
2019-04-30T01:06:59.939Z,99.90
2019-04-30T01:09:25.797Z,99.90
2019-04-30T01:11:55.307Z,99.90
2019-04-30T01:14:32.232Z,99.90
2019-04-30T01:17:03.714Z,99.90
2019-04-30T01:19:36.471Z,99.90
2019-04-30T01:22:04.881Z,99.90
2019-04-30T01:24:38.650Z,99.90
2019-04-30T01:27:10.708Z,99.90
2019-04-30T01:29:44.012Z,99.90
2019-04-30T01:32:10.421Z,99.90
2019-04-30T01:34:44.237Z,99.90
2019-04-30T01:37:20.098Z,99.90
2019-04-30T01:39:49.476Z,99.90
2019-04-30T01:42:19.784Z,99.90
2019-04-30T01:44:52.607Z,99.90
2019-04-30T01:47:21.435Z,99.90
2019-04-30T01:49:49.598Z,99.90
2019-04-30T01:52:19.251Z,99.90
2019-04-30T01:54:49.054Z,99.90
2019-04-30T01:57:29.470Z,99.90
2019-04-30T02:00:04.715Z,99.90
2019-04-30T02:02:39.415Z,99.90
2019-04-30T02:05:08.868Z,99.90
2019-04-30T02:07:40.154Z,99.90
2019-04-30T02:10:19.678Z,99.90
2019-04-30T02:13:02.762Z,99.90
2019-04-30T02:15:33.459Z,99.90
2019-04-30T02:18:01.357Z,99.90
2019-04-30T02:20:30.981Z,99.90
2019-04-30T02:23:03.707Z,99.90
2019-04-30T02:25:31.480Z,99.90
2019-04-30T02:28:24.874Z,99.90
2019-04-30T02:30:54.876Z,99.90
2019-04-30T02:33:24.558Z,99.90
2019-04-30T02:36:19.824Z,99.90
2019-04-30T02:38:51.692Z,99.90
2019-04-30T02:41:20.876Z,99.90
2019-04-30T02:43:52.403Z,99.90
2019-04-30T02:46:24.314Z,99.90
2019-04-30T02:48:55.242Z,99.90
2019-04-30T02:51:29.457Z,99.90
2019-04-30T02:54:24.824Z,99.90
2019-04-30T02:57:23.549Z,99.90
2019-04-30T03:00:10.035Z,99.90
2019-04-30T03:02:40.176Z,99.90
2019-04-30T03:05:10.208Z,99.90
2019-04-30T03:08:35.125Z,99.90
2019-04-30T03:14:22.515Z,99.90
2019-04-30T03:17:10.290Z,99.90
2019-04-30T03:20:05.699Z,99.90
2019-04-30T03:22:36.137Z,99.90
2019-04-30T03:25:19.310Z,99.90
2019-04-30T03:27:49.689Z,99.90
2019-04-30T03:30:21.894Z,99.90
2019-04-30T03:32:56.087Z,99.90
2019-04-30T03:35:22.248Z,99.90
2019-04-30T03:37:50.533Z,99.90
2019-04-30T03:40:20.199Z,99.90
2019-04-30T03:42:53.158Z,99.90
2019-04-30T03:45:22.218Z,99.90
2019-04-30T03:47:51.324Z,99.90
2019-04-30T03:50:21.179Z,99.90
2019-04-30T03:52:52.004Z,99.90
2019-04-30T03:55:26.560Z,99.90
2019-04-30T03:57:55.152Z,99.90
2019-04-30T04:00:50.264Z,99.90
2019-04-30T04:03:20.090Z,99.90
2019-04-30T04:05:54.759Z,99.90
2019-04-30T04:08:29.606Z,99.90
2019-04-30T04:11:10.151Z,99.90
2019-04-30T04:13:40.390Z,99.90
2019-04-30T04:16:09.670Z,99.90
2019-04-30T04:18:40.384Z,99.90
2019-04-30T04:21:16.412Z,99.90
2019-04-30T04:23:41.054Z,99.90
2019-04-30T04:26:09.541Z,99.90
2019-04-30T04:28:40.901Z,99.90
2019-04-30T04:31:39.501Z,99.90
2019-04-30T04:34:11.003Z,99.90
2019-04-30T04:36:43.301Z,99.90
2019-04-30T04:44:29.366Z,99.90
2019-04-30T04:47:02.314Z,99.90
2019-04-30T04:49:33.669Z,99.90
2019-04-30T04:52:03.375Z,99.90
2019-04-30T04:54:32.401Z,99.90
2019-04-30T04:57:13.232Z,99.90
2019-04-30T04:59:35.511Z,99.90
2019-04-30T05:02:23.794Z,99.90
2019-04-30T05:05:00.788Z,99.90
2019-04-30T05:07:32.622Z,99.90
2019-04-30T05:10:14.613Z,99.90
2019-04-30T05:12:45.073Z,99.90
2019-04-30T05:15:14.186Z,99.90
2019-04-30T05:17:44.845Z,99.90
2019-04-30T05:20:41.515Z,99.90
2019-04-30T05:23:54.238Z,99.90
2019-04-30T05:26:28.934Z,99.90
2019-04-30T05:29:28.922Z,99.90
2019-04-30T05:32:19.674Z,99.90
2019-04-30T05:34:46.589Z,99.90
2019-04-30T05:37:53.599Z,99.90
2019-04-30T05:44:50.109Z,99.90
2019-04-30T05:48:19.110Z,99.90
2019-04-30T05:51:21.300Z,99.90
2019-04-30T05:53:49.417Z,99.90
2019-04-30T05:56:19.321Z,99.90
2019-04-30T05:59:10.211Z,99.90
2019-04-30T06:01:52.025Z,99.90
2019-04-30T06:09:06.631Z,99.90
2019-04-30T06:11:51.140Z,99.90
2019-04-30T06:14:45.585Z,99.90
2019-04-30T06:17:14.296Z,99.90
2019-04-30T06:19:42.475Z,99.90
2019-04-30T06:22:13.321Z,99.90
2019-04-30T06:24:49.540Z,99.90
2019-04-30T06:27:22.655Z,99.90
2019-04-30T06:29:53.353Z,99.90
2019-04-30T06:32:43.123Z,99.90
2019-04-30T06:35:29.398Z,99.90
2019-04-30T06:38:24.065Z,99.90
2019-04-30T06:40:53.727Z,99.90
2019-04-30T06:43:23.240Z,99.90
2019-04-30T06:45:55.333Z,99.90
2019-04-30T06:48:30.034Z,99.90
2019-04-30T06:51:18.932Z,99.90
2019-04-30T06:54:19.286Z,99.90
2019-04-30T06:56:49.928Z,99.90
2019-04-30T06:59:17.649Z,99.90
2019-04-30T07:16:25.139Z,99.10
2019-04-30T07:23:00.210Z,99.60
2019-04-30T07:25:59.055Z,97.60
2019-04-30T07:28:43.804Z,97.40
2019-04-30T07:31:11.414Z,97.20
2019-04-30T07:33:53.564Z,94.10
2019-04-30T07:36:48.328Z,93.30
2019-04-30T07:43:33.233Z,90.90
2019-04-30T07:46:09.211Z,86.60
2019-04-30T07:48:56.635Z,86.20
2019-04-30T07:52:01.115Z,85.50
2019-04-30T07:54:33.468Z,87.50
2019-04-30T07:57:01.364Z,83.80
2019-04-30T07:59:30.179Z,82.60
2019-04-30T08:02:14.905Z,81.40
2019-04-30T08:05:12.063Z,82.20
2019-04-30T08:10:42.544Z,81.60
2019-04-30T08:13:21.656Z,79.70
2019-04-30T08:15:49.891Z,77.10
2019-04-30T08:18:18.485Z,75.60
2019-04-30T08:20:51.105Z,73.50
2019-04-30T08:23:34.908Z,71.50
2019-04-30T08:25:58.710Z,70.00
2019-04-30T08:28:46.168Z,70.60
2019-04-30T08:31:23.110Z,65.20
2019-04-30T08:33:53.444Z,67.70
2019-04-30T08:36:24.328Z,67.50
2019-04-30T08:39:10.161Z,68.00
2019-04-30T08:41:49.148Z,65.40
2019-04-30T08:45:05.072Z,64.00
2019-04-30T08:47:41.015Z,65.20
2019-04-30T08:50:14.946Z,64.90
2019-04-30T08:52:45.351Z,64.30
2019-04-30T08:55:17.059Z,63.40
2019-04-30T09:02:13.654Z,63.20
2019-04-30T09:09:35.223Z,63.50
2019-04-30T09:12:13.946Z,64.60
2019-04-30T09:14:46.035Z,63.10
2019-04-30T09:17:14.075Z,64.60
2019-04-30T09:24:51.514Z,65.40
2019-04-30T09:27:25.407Z,67.00
2019-04-30T09:29:59.623Z,63.90
2019-04-30T09:32:29.116Z,66.40
2019-04-30T09:35:32.157Z,70.10
2019-04-30T09:38:12.767Z,70.30
2019-04-30T09:41:01.564Z,70.50
2019-04-30T09:43:41.574Z,72.00
2019-04-30T09:46:33.176Z,74.10
2019-04-30T09:49:01.265Z,72.60
2019-04-30T09:51:39.642Z,70.00
2019-04-30T09:54:24.933Z,70.70
2019-04-30T09:56:55.197Z,70.40
2019-04-30T09:59:22.951Z,71.40
2019-04-30T10:02:22.907Z,69.00
2019-04-30T10:05:08.447Z,71.10
2019-04-30T10:07:59.359Z,72.40
2019-04-30T10:14:32.640Z,71.00
2019-04-30T10:17:32.380Z,71.10
2019-04-30T10:20:14.810Z,71.70
2019-04-30T10:23:13.596Z,72.40
2019-04-30T10:25:42.101Z,72.10
2019-04-30T10:28:11.425Z,69.60
2019-04-30T10:30:48.778Z,67.80
2019-04-30T10:33:19.591Z,68.90
2019-04-30T10:35:51.848Z,68.20
2019-04-30T10:38:25.419Z,66.30
2019-04-30T10:40:53.341Z,68.80
2019-04-30T10:43:32.347Z,66.40
2019-04-30T10:46:51.121Z,67.60
2019-04-30T10:49:20.110Z,66.20
2019-04-30T10:51:48.224Z,66.30
2019-04-30T10:54:26.104Z,65.80
2019-04-30T10:56:59.266Z,63.20
2019-04-30T10:59:27.646Z,65.30
2019-04-30T11:02:01.360Z,65.50
2019-04-30T11:04:36.908Z,63.70
2019-04-30T11:07:05.362Z,64.70
2019-04-30T11:09:46.131Z,65.90
2019-04-30T11:12:29.346Z,66.00
2019-04-30T11:15:36.199Z,66.60
2019-04-30T11:18:31.038Z,65.20
2019-04-30T11:21:23.949Z,62.90
2019-04-30T11:23:53.436Z,63.30
2019-04-30T11:26:36.222Z,64.40
2019-04-30T11:29:22.760Z,63.70
2019-04-30T11:32:16.037Z,64.40
2019-04-30T11:34:55.180Z,63.80
2019-04-30T11:37:45.943Z,64.50
2019-04-30T11:40:46.110Z,64.00
2019-04-30T11:44:31.011Z,65.80
2019-04-30T11:47:40.175Z,60.30
2019-04-30T11:50:23.189Z,58.60
2019-04-30T11:52:52.456Z,59.90
2019-04-30T11:55:23.220Z,58.90
2019-04-30T11:58:03.195Z,59.60
2019-04-30T12:01:04.654Z,60.10
2019-04-30T12:07:54.101Z,60.10
2019-04-30T12:13:34.104Z,61.10
2019-04-30T12:16:11.322Z,59.30
2019-04-30T12:19:03.794Z,59.80
2019-04-30T12:21:42.232Z,59.90
2019-04-30T12:24:18.862Z,58.50
2019-04-30T12:26:58.363Z,59.10
2019-04-30T12:29:47.127Z,59.30
2019-04-30T12:32:39.168Z,60.40
2019-04-30T12:35:19.923Z,60.10
2019-04-30T12:38:29.896Z,60.50
2019-04-30T12:41:10.934Z,61.70
2019-04-30T12:44:12.218Z,60.60
2019-04-30T12:46:56.186Z,60.90
2019-04-30T12:49:28.820Z,60.90
2019-04-30T12:52:11.296Z,61.50
2019-04-30T12:54:59.175Z,61.60
2019-04-30T12:57:55.248Z,62.00
2019-04-30T13:00:19.529Z,62.30
2019-04-30T13:03:03.061Z,63.30
2019-04-30T13:09:10.166Z,62.90
2019-04-30T13:11:40.588Z,63.70
2019-04-30T13:14:16.334Z,63.40
2019-04-30T13:16:44.619Z,63.40
2019-04-30T13:19:27.827Z,63.70
2019-04-30T13:22:38.849Z,64.60
2019-04-30T13:25:35.559Z,66.60
2019-04-30T13:28:41.215Z,65.80
2019-04-30T13:31:54.444Z,65.50
2019-04-30T13:35:00.645Z,66.70
2019-04-30T13:37:51.803Z,65.40
2019-04-30T13:40:58.819Z,66.90
2019-04-30T13:43:55.052Z,67.80
2019-04-30T13:47:20.168Z,67.10
2019-04-30T13:50:21.016Z,67.60
2019-04-30T13:53:28.420Z,67.30
2019-04-30T13:56:00.469Z,69.60
2019-04-30T13:58:29.593Z,69.80
2019-04-30T14:01:39.785Z,69.20
2019-04-30T14:04:45.081Z,69.10
2019-04-30T14:08:28.922Z,69.60
2019-04-30T14:15:46.034Z,70.80
2019-04-30T14:18:42.855Z,69.70
2019-04-30T14:22:02.450Z,69.90
2019-04-30T14:25:17.924Z,71.40
2019-04-30T14:28:05.674Z,72.10
2019-04-30T14:31:00.905Z,72.00
2019-04-30T14:33:42.939Z,72.60
2019-04-30T14:36:46.874Z,72.50
2019-04-30T14:39:21.250Z,72.90
2019-04-30T14:42:16.905Z,72.10
2019-04-30T14:45:14.696Z,71.70
2019-04-30T14:48:23.704Z,73.20
2019-04-30T14:50:54.933Z,72.90
2019-04-30T14:53:53.522Z,73.60
2019-04-30T14:57:14.129Z,72.80
2019-04-30T15:00:40.386Z,72.90
2019-04-30T15:03:39.457Z,71.70
2019-04-30T15:07:07.205Z,73.50
2019-04-30T15:09:36.464Z,73.90
2019-04-30T15:12:32.087Z,74.10
2019-04-30T15:15:21.035Z,74.50
2019-04-30T15:26:21.625Z,72.40
2019-04-30T15:28:41.448Z,73.00
2019-04-30T15:32:09.305Z,73.90
2019-04-30T15:35:32.486Z,74.60
2019-04-30T15:41:35.519Z,75.60
2019-04-30T15:48:04.232Z,75.00
2019-04-30T15:50:35.533Z,76.00
2019-04-30T15:54:06.970Z,76.40
2019-04-30T16:07:36.682Z,76.40
2019-04-30T16:10:58.571Z,75.00
2019-04-30T16:13:41.818Z,75.40
2019-04-30T16:16:14.912Z,74.70
2019-04-30T16:19:15.949Z,75.00
2019-04-30T16:22:21.555Z,74.60
2019-04-30T16:25:42.482Z,75.20
2019-04-30T16:28:29.460Z,74.60
2019-04-30T16:31:09.820Z,75.00
2019-04-30T16:33:40.306Z,73.50
2019-04-30T16:36:14.580Z,74.80
2019-04-30T16:39:39.773Z,75.80
2019-04-30T16:42:50.952Z,76.10
2019-04-30T16:49:29.004Z,75.70
2019-04-30T16:52:31.036Z,76.40
2019-04-30T16:55:06.870Z,76.20
2019-04-30T16:57:44.957Z,76.70
2019-04-30T17:00:46.168Z,76.80
2019-04-30T17:03:47.720Z,77.30
2019-04-30T17:07:25.900Z,77.10
2019-04-30T17:10:29.534Z,77.20
2019-04-30T17:13:18.785Z,75.80
2019-04-30T17:20:20.664Z,74.50
2019-04-30T17:23:06.431Z,75.30
2019-04-30T17:25:52.859Z,76.30
2019-04-30T17:28:22.853Z,76.80
2019-04-30T17:31:27.170Z,76.90
2019-04-30T17:41:25.410Z,76.30
2019-04-30T17:44:02.282Z,77.60
2019-04-30T17:46:44.153Z,78.20
2019-04-30T17:49:24.450Z,79.50
2019-04-30T17:52:27.360Z,80.70
2019-04-30T17:54:59.507Z,81.20
2019-04-30T17:57:40.034Z,82.60
2019-04-30T18:03:28.964Z,84.60
2019-04-30T18:06:09.099Z,86.20
2019-04-30T18:09:06.308Z,87.90
2019-04-30T18:11:52.909Z,89.20
2019-04-30T18:14:23.783Z,90.40
2019-04-30T18:16:54.693Z,91.30
2019-04-30T18:19:55.725Z,92.00
2019-04-30T18:22:49.206Z,92.60
2019-04-30T18:26:04.275Z,93.40
2019-04-30T18:29:35.475Z,94.00
2019-04-30T18:32:29.475Z,94.60
2019-04-30T18:39:33.896Z,95.90
2019-04-30T18:42:19.371Z,96.70
2019-04-30T18:44:47.607Z,97.30
2019-04-30T18:47:27.002Z,98.00
2019-04-30T18:49:55.198Z,98.30
2019-04-30T18:52:24.077Z,98.90
2019-04-30T18:56:14.952Z,99.40
2019-04-30T18:58:48.521Z,99.90
2019-04-30T19:01:16.496Z,99.90
2019-04-30T19:03:44.774Z,99.90
2019-04-30T19:06:23.884Z,99.90
2019-04-30T19:08:58.467Z,99.90
2019-04-30T19:11:35.442Z,99.90
2019-04-30T19:14:39.505Z,99.90
2019-04-30T19:17:50.778Z,99.90
2019-04-30T19:21:19.579Z,99.90
2019-04-30T19:24:06.044Z,99.90
2019-04-30T19:27:13.306Z,99.90
2019-04-30T19:30:54.761Z,99.90
2019-04-30T19:33:31.871Z,99.90
2019-04-30T19:36:00.311Z,99.90
2019-04-30T19:38:37.075Z,99.90
2019-04-30T19:41:18.579Z,99.90
2019-04-30T19:43:50.080Z,99.90
2019-04-30T19:46:29.412Z,99.90
2019-04-30T19:48:58.554Z,99.90
2019-04-30T19:51:40.689Z,99.90
2019-04-30T19:54:29.888Z,99.90
2019-04-30T19:57:02.824Z,99.90
2019-04-30T19:59:31.241Z,99.90
2019-04-30T20:02:39.106Z,99.90
2019-04-30T20:05:19.355Z,99.90
2019-04-30T20:07:52.668Z,99.90
2019-04-30T20:10:24.429Z,99.90
2019-04-30T20:13:00.298Z,99.90
2019-04-30T20:15:36.662Z,99.90
2019-04-30T20:18:09.165Z,99.90
2019-04-30T20:20:39.973Z,99.90
2019-04-30T20:23:55.283Z,99.90
2019-04-30T20:27:22.512Z,99.90
2019-04-30T20:29:51.773Z,99.90
2019-04-30T20:39:50.033Z,99.90
2019-04-30T20:42:25.969Z,99.90
2019-04-30T20:44:59.113Z,99.90
2019-04-30T20:47:32.374Z,99.90
2019-04-30T20:50:07.978Z,99.90
2019-04-30T20:52:51.299Z,99.90
2019-04-30T20:55:25.484Z,99.90
2019-04-30T20:57:59.473Z,99.90
2019-04-30T21:00:30.625Z,99.90
2019-04-30T21:03:06.151Z,99.90
2019-04-30T21:05:54.126Z,99.90
2019-04-30T21:08:32.603Z,99.90
2019-04-30T21:11:06.227Z,99.90
2019-04-30T21:13:41.312Z,99.90
2019-04-30T21:16:09.187Z,99.90
2019-04-30T21:18:39.118Z,99.90
2019-04-30T21:21:28.743Z,99.90
2019-04-30T21:24:15.216Z,99.90
2019-04-30T21:26:59.823Z,99.90
2019-04-30T21:29:49.737Z,99.90
2019-04-30T21:32:51.395Z,99.90
2019-04-30T21:36:21.637Z,99.90
2019-04-30T21:38:52.197Z,99.90
2019-04-30T21:41:26.995Z,99.90
2019-04-30T21:43:57.321Z,99.90
2019-04-30T21:46:33.412Z,99.90
2019-04-30T21:49:08.944Z,99.90
2019-04-30T21:51:47.210Z,99.90
2019-04-30T21:54:22.506Z,99.90
2019-04-30T21:57:04.675Z,99.90
2019-04-30T21:59:48.749Z,99.90
2019-04-30T22:02:17.531Z,99.90
2019-04-30T22:04:47.768Z,99.90
2019-04-30T22:07:15.577Z,99.90
2019-04-30T22:09:52.285Z,99.90
2019-04-30T22:12:26.257Z,99.90
2019-04-30T22:15:05.167Z,99.90
2019-04-30T22:17:36.473Z,99.90
2019-04-30T22:20:15.765Z,99.90
2019-04-30T22:22:49.085Z,99.90
2019-04-30T22:25:19.283Z,99.90
2019-04-30T22:27:46.982Z,99.90
2019-04-30T22:30:17.124Z,99.90
2019-04-30T22:32:46.756Z,99.90
2019-04-30T22:35:36.170Z,99.90
2019-04-30T22:38:42.127Z,99.90
2019-04-30T22:42:00.499Z,99.90
2019-04-30T22:44:52.827Z,99.90
2019-04-30T22:47:43.288Z,99.90
2019-04-30T22:50:44.215Z,99.90
2019-04-30T22:53:15.586Z,99.90
2019-04-30T22:55:53.165Z,99.90
2019-04-30T22:58:29.166Z,99.90
2019-04-30T23:01:19.623Z,99.90
2019-04-30T23:03:48.002Z,99.90
2019-04-30T23:06:15.640Z,99.90
2019-04-30T23:08:43.319Z,99.90
2019-04-30T23:11:11.049Z,99.90
2019-04-30T23:13:38.899Z,99.90
2019-04-30T23:16:07.135Z,99.90
2019-04-30T23:18:35.238Z,99.90
2019-04-30T23:21:09.281Z,99.90
2019-04-30T23:23:40.376Z,99.90
2019-04-30T23:26:11.917Z,99.90
2019-04-30T23:28:41.366Z,99.90
2019-04-30T23:31:14.309Z,99.90
2019-04-30T23:33:47.347Z,99.90
2019-04-30T23:36:16.827Z,99.90
2019-04-30T23:38:44.510Z,99.90
2019-04-30T23:41:12.174Z,99.90
2019-04-30T23:43:39.850Z,99.90
2019-04-30T23:46:07.491Z,99.90
2019-04-30T23:48:35.395Z,99.90
2019-04-30T23:51:03.646Z,99.90
2019-04-30T23:53:31.319Z,99.90
2019-04-30T23:55:59.010Z,99.90
2019-04-30T23:58:30.404Z,99.90
